createdAt,value
2023-11-13T00:01:22.292Z,98652.63
2023-11-13T00:03:49.627Z,98659.09
2023-11-13T00:06:16.345Z,98659.09
2023-11-13T00:08:43.964Z,98667.97
2023-11-13T00:11:10.802Z,98673.84
2023-11-13T00:13:37.730Z,98680.34
2023-11-13T00:16:04.885Z,98675.84
2023-11-13T00:18:32.987Z,98685.34
2023-11-13T00:21:00.303Z,98671.06
2023-11-13T00:23:28.712Z,98668.84
2023-11-13T00:25:55.299Z,98654.00
2023-11-13T00:28:22.123Z,98653.69
2023-11-13T00:30:48.832Z,98649.34
2023-11-13T00:33:17.297Z,98648.50
2023-11-13T00:35:45.519Z,98642.53
2023-11-13T00:38:12.130Z,98654.59
2023-11-13T00:40:38.711Z,98655.09
2023-11-13T00:43:06.031Z,98663.19
2023-11-13T00:45:33.140Z,98672.06
2023-11-13T00:47:59.636Z,98651.31
2023-11-13T00:50:26.178Z,98655.59
2023-11-13T00:52:52.715Z,98646.41
2023-11-13T00:55:19.198Z,98639.81
2023-11-13T00:57:45.771Z,98635.22
2023-11-13T01:00:14.491Z,98646.28
2023-11-13T01:02:41.069Z,98655.16
2023-11-13T01:05:08.135Z,98633.88
2023-11-13T01:07:34.942Z,98631.19
2023-11-13T01:10:01.543Z,98631.19
2023-11-13T01:12:28.266Z,98629.25
2023-11-13T01:14:54.822Z,98605.22
2023-11-13T01:17:21.455Z,98595.47
2023-11-13T01:19:48.009Z,98602.47
2023-11-13T01:22:14.777Z,98594.94
2023-11-13T01:24:41.457Z,98598.78
2023-11-13T01:27:07.960Z,98602.47
2023-11-13T01:29:34.430Z,98615.34
2023-11-13T01:32:01.988Z,98614.25
2023-11-13T01:34:28.806Z,98605.97
2023-11-13T01:36:55.487Z,98614.72
2023-11-13T01:39:22.069Z,98604.56
2023-11-13T01:41:48.598Z,98608.50
2023-11-13T01:44:15.073Z,98612.34
2023-11-13T01:46:42.948Z,98621.09
2023-11-13T01:49:10.438Z,98611.56
2023-11-13T01:51:37.036Z,98614.72
2023-11-13T01:54:04.528Z,98620.16
2023-11-13T01:56:32.915Z,98620.16
2023-11-13T01:59:00.435Z,98630.97
2023-11-13T02:01:29.895Z,98629.38
2023-11-13T02:03:56.697Z,98639.56
2023-11-13T02:06:26.119Z,98644.97
2023-11-13T02:08:52.650Z,98631.91
2023-11-13T02:11:21.064Z,98626.50
2023-11-13T02:13:49.102Z,98637.97
2023-11-13T02:16:15.908Z,98642.44
2023-11-13T02:18:42.550Z,98647.03
2023-11-13T02:21:09.849Z,98656.56
2023-11-13T02:23:36.603Z,98659.91
2023-11-13T02:26:14.870Z,98663.72
2023-11-13T02:28:41.528Z,98658.66
2023-11-13T02:31:08.038Z,98676.78
2023-11-13T02:33:34.501Z,98680.59
2023-11-13T02:36:01.120Z,98678.22
2023-11-13T02:38:27.616Z,98697.94
2023-11-13T02:40:54.127Z,98698.28
2023-11-13T02:43:20.719Z,98694.28
2023-11-13T02:45:47.275Z,98708.94
2023-11-13T02:48:13.833Z,98711.16
2023-11-13T02:50:41.293Z,98709.56
2023-11-13T02:53:07.828Z,98707.97
2023-11-13T02:55:34.351Z,98704.16
2023-11-13T02:58:00.917Z,98694.94
2023-11-13T03:00:27.415Z,98684.09
2023-11-13T03:02:53.949Z,98686.34
2023-11-13T03:05:20.618Z,98675.50
2023-11-13T03:07:47.345Z,98688.41
2023-11-13T03:10:13.949Z,98682.66
2023-11-13T03:12:41.086Z,98677.41
2023-11-13T03:15:08.632Z,98682.19
2023-11-13T03:17:35.189Z,98680.44
2023-11-13T03:20:04.229Z,98682.50
2023-11-13T03:22:31.133Z,98675.69
2023-11-13T03:24:57.796Z,98685.38
2023-11-13T03:27:24.356Z,98686.66
2023-11-13T03:29:51.874Z,98688.75
2023-11-13T03:32:19.172Z,98700.03
2023-11-13T03:34:46.241Z,98706.22
2023-11-13T03:37:12.795Z,98711.66
2023-11-13T03:39:39.287Z,98708.63
2023-11-13T03:42:05.913Z,98717.88
2023-11-13T03:44:32.481Z,98719.16
2023-11-13T03:46:59.015Z,98724.56
2023-11-13T03:49:25.633Z,98728.84
2023-11-13T03:51:52.172Z,98728.22
2023-11-13T03:54:18.701Z,98732.81
2023-11-13T03:56:45.229Z,98723.94
2023-11-13T03:59:11.693Z,98714.34
2023-11-13T04:01:38.349Z,98712.13
2023-11-13T04:04:05.670Z,98708.00
2023-11-13T04:06:32.304Z,98716.13
2023-11-13T04:08:58.853Z,98710.69
2023-11-13T04:11:25.395Z,98716.28
2023-11-13T04:13:51.975Z,98722.47
2023-11-13T04:16:18.686Z,98728.69
2023-11-13T04:18:45.257Z,98734.13
2023-11-13T04:21:11.758Z,98721.84
2023-11-13T04:23:38.411Z,98723.13
2023-11-13T04:26:05.583Z,98725.84
2023-11-13T04:28:36.371Z,98726.31
2023-11-13T04:31:04.975Z,98720.13
2023-11-13T04:33:31.569Z,98727.41
2023-11-13T04:36:02.340Z,98730.13
2023-11-13T04:38:29.033Z,98727.41
2023-11-13T04:40:55.482Z,98717.41
2023-11-13T04:43:22.173Z,98699.72
2023-11-13T04:45:48.849Z,98691.44
2023-11-13T04:48:15.415Z,98676.00
2023-11-13T04:50:41.962Z,98685.53
2023-11-13T04:53:08.521Z,98683.16
2023-11-13T04:55:35.065Z,98666.91
2023-11-13T04:58:03.209Z,98667.56
2023-11-13T05:00:29.758Z,98682.22
2023-11-13T05:02:56.360Z,98683.81
2023-11-13T05:05:22.871Z,98669.47
2023-11-13T05:07:49.368Z,98676.81
2023-11-13T05:10:15.931Z,98660.56
2023-11-13T05:12:42.470Z,98655.16
2023-11-13T05:15:09.478Z,98665.97
2023-11-13T05:17:39.696Z,98667.09
2023-11-13T05:20:08.018Z,98662.16
2023-11-13T05:22:35.135Z,98666.75
2023-11-13T05:25:02.231Z,98674.88
2023-11-13T05:27:28.828Z,98683.81
2023-11-13T05:29:55.347Z,98682.22
2023-11-13T05:32:21.971Z,98693.81
2023-11-13T05:34:49.906Z,98691.94
2023-11-13T05:37:16.639Z,98683.81
2023-11-13T05:39:43.186Z,98676.00
2023-11-13T05:42:09.760Z,98668.50
2023-11-13T05:44:37.389Z,98673.16
2023-11-13T05:47:05.084Z,98672.63
2023-11-13T05:49:34.776Z,98667.88
2023-11-13T05:52:01.593Z,98660.22
2023-11-13T05:54:28.982Z,98640.31
2023-11-13T05:56:56.057Z,98646.69
2023-11-13T05:59:22.685Z,98665.47
2023-11-13T06:01:50.403Z,98660.69
2023-11-13T06:04:17.394Z,98646.84
2023-11-13T06:06:47.036Z,98634.72
2023-11-13T06:09:14.075Z,98628.84
2023-11-13T06:11:40.649Z,98635.38
2023-11-13T06:14:08.283Z,98638.84
2023-11-13T06:16:35.282Z,98637.63
2023-11-13T06:19:02.961Z,98645.56
2023-11-13T06:21:29.601Z,98642.56
2023-11-13T06:23:56.109Z,98639.03
2023-11-13T06:26:22.677Z,98643.97
2023-11-13T06:28:49.487Z,98637.13
2023-11-13T06:31:17.934Z,98628.69
2023-11-13T06:33:44.721Z,98612.13
2023-11-13T06:36:11.410Z,98612.59
2023-11-13T06:38:38.704Z,98623.44
2023-11-13T06:41:05.832Z,98620.44
2023-11-13T06:43:34.108Z,98622.97
2023-11-13T06:46:01.248Z,98625.97
2023-11-13T06:48:27.992Z,98629.97
2023-11-13T06:50:54.449Z,98622.00
2023-11-13T06:53:21.157Z,98632.78
2023-11-13T06:55:49.174Z,98627.31
2023-11-13T06:58:15.992Z,98643.56
2023-11-13T07:00:42.693Z,98628.91
2023-11-13T07:03:11.818Z,98621.25
2023-11-13T07:05:39.007Z,98635.63
2023-11-13T07:08:05.674Z,98615.56
2023-11-13T07:10:35.633Z,98620.78
2023-11-13T07:13:02.550Z,98609.47
2023-11-13T07:15:31.171Z,98612.38
2023-11-13T07:17:57.874Z,98600.91
2023-11-13T07:20:24.367Z,98608.84
2023-11-13T07:22:52.124Z,98613.75
2023-11-13T07:25:18.880Z,98605.44
2023-11-13T07:27:45.778Z,98596.09
2023-11-13T07:30:12.593Z,98588.81
2023-11-13T07:32:40.386Z,98586.28
2023-11-13T07:35:09.151Z,98574.66
2023-11-13T07:37:36.236Z,98566.84
2023-11-13T07:40:02.945Z,98563.69
2023-11-13T07:42:30.621Z,98555.75
2023-11-13T07:44:59.645Z,98554.44
2023-11-13T07:47:28.956Z,98553.13
2023-11-13T07:49:59.515Z,98554.69
2023-11-13T07:52:29.376Z,98554.47
2023-11-13T07:54:57.212Z,98558.63
2023-11-13T07:57:24.488Z,98551.16
2023-11-13T07:59:52.528Z,98567.38
2023-11-13T08:02:21.242Z,98575.16
2023-11-13T08:04:48.091Z,98571.34
2023-11-13T08:07:23.347Z,98565.72
2023-11-13T08:09:52.661Z,98559.28
2023-11-13T08:12:19.955Z,98563.06
2023-11-13T08:14:47.859Z,98555.56
2023-11-13T08:17:14.597Z,98550.13
2023-11-13T08:19:42.883Z,98551.38
2023-11-13T08:22:09.540Z,98549.59
2023-11-13T08:24:36.531Z,98557.56
2023-11-13T08:27:04.996Z,98554.63
2023-11-13T08:29:34.070Z,98541.81
2023-11-13T08:32:01.827Z,98551.13
2023-11-13T08:34:28.769Z,98548.69
2023-11-13T08:36:55.452Z,98547.56
2023-11-13T08:39:23.866Z,98542.41
2023-11-13T08:41:50.443Z,98550.16
2023-11-13T08:44:17.002Z,98548.03
2023-11-13T08:46:44.264Z,98555.16
2023-11-13T08:49:10.846Z,98548.88
2023-11-13T08:51:39.989Z,98550.25
2023-11-13T08:54:06.639Z,98555.47
2023-11-13T08:56:33.635Z,98555.00
2023-11-13T08:59:01.598Z,98555.91
2023-11-13T09:01:28.890Z,98542.72
2023-11-13T09:04:01.630Z,98538.53
2023-11-13T09:06:28.983Z,98520.00
2023-11-13T09:08:55.554Z,98529.41
2023-11-13T09:11:27.651Z,98524.06
2023-11-13T09:13:54.163Z,98524.06
2023-11-13T09:16:21.744Z,98517.84
2023-11-13T09:18:50.156Z,98517.06
2023-11-13T09:21:20.592Z,98497.59
2023-11-13T09:23:47.758Z,98496.13
2023-11-13T09:26:14.301Z,98484.25
2023-11-13T09:28:40.943Z,98493.31
2023-11-13T09:31:10.906Z,98501.91
2023-11-13T09:33:40.778Z,98497.38
2023-11-13T09:36:08.943Z,98501.69
2023-11-13T09:38:35.734Z,98494.00
2023-11-13T09:41:05.051Z,98480.41
2023-11-13T09:43:38.087Z,98482.91
2023-11-13T09:46:09.717Z,98477.59
2023-11-13T09:48:45.078Z,98489.22
2023-11-13T09:51:27.163Z,98473.84
2023-11-13T09:53:58.095Z,98477.81
2023-11-13T09:56:28.838Z,98489.94
2023-11-13T09:58:58.009Z,98478.81
2023-11-13T10:01:24.893Z,98484.03
2023-11-13T10:03:51.924Z,98483.81
2023-11-13T10:06:19.925Z,98478.19
2023-11-13T10:08:48.332Z,98476.34
2023-11-13T10:11:15.181Z,98474.09
2023-11-13T10:13:42.466Z,98469.53
2023-11-13T10:16:23.840Z,98455.63
2023-11-13T10:18:53.516Z,98449.94
2023-11-13T10:21:21.545Z,98441.91
2023-11-13T10:23:50.472Z,98436.53
2023-11-13T10:26:26.357Z,98439.38
2023-11-13T10:28:52.879Z,98439.13
2023-11-13T10:31:24.876Z,98439.25
2023-11-13T10:34:04.045Z,98436.97
2023-11-13T10:36:33.700Z,98427.66
2023-11-13T10:39:00.834Z,98430.03
2023-11-13T10:41:34.939Z,98420.72
2023-11-13T10:44:20.701Z,98414.63
2023-11-13T10:46:47.304Z,98410.06
2023-11-13T10:49:14.758Z,98419.13
2023-11-13T10:51:44.250Z,98420.81
2023-11-13T10:54:12.685Z,98415.81
2023-11-13T10:56:40.088Z,98400.69
2023-11-13T10:59:09.897Z,98397.97
2023-11-13T11:01:43.283Z,98406.94
2023-11-13T11:04:11.714Z,98392.09
2023-11-13T11:06:41.442Z,98392.34
2023-11-13T11:09:09.052Z,98403.13
2023-11-13T11:11:36.290Z,98403.81
2023-11-13T11:14:12.455Z,98399.88
2023-11-13T11:16:39.884Z,98383.19
2023-11-13T11:19:31.213Z,98386.28
2023-11-13T11:22:05.695Z,98387.88
2023-11-13T11:24:58.674Z,98377.00
2023-11-13T11:27:35.430Z,98381.19
2023-11-13T11:30:02.262Z,98377.31
2023-11-13T11:32:32.594Z,98366.53
2023-11-13T11:35:05.539Z,98381.38
2023-11-13T11:37:32.175Z,98371.28
2023-11-13T11:40:05.150Z,98367.69
2023-11-13T11:42:33.174Z,98366.53
2023-11-13T11:45:03.097Z,98365.03
2023-11-13T11:47:30.490Z,98353.94
2023-11-13T11:50:01.063Z,98364.44
2023-11-13T11:52:59.139Z,98364.72
2023-11-13T11:55:27.165Z,98348.81
2023-11-13T11:57:54.208Z,98338.38
2023-11-13T12:00:22.900Z,98332.25
2023-11-13T12:02:54.404Z,98331.53
2023-11-13T12:05:21.578Z,98337.44
2023-11-13T12:07:52.088Z,98344.47
2023-11-13T12:10:22.310Z,98338.22
2023-11-13T12:12:50.386Z,98344.91
2023-11-13T12:15:17.076Z,98342.53
2023-11-13T12:17:44.513Z,98350.25
2023-11-13T12:20:20.324Z,98347.88
2023-11-13T12:22:49.673Z,98332.25
2023-11-13T12:25:17.015Z,98337.06
2023-11-13T12:27:50.279Z,98316.78
2023-11-13T12:30:25.212Z,98307.84
2023-11-13T12:32:52.787Z,98300.38
2023-11-13T12:35:21.783Z,98311.25
2023-11-13T12:37:49.824Z,98321.34
2023-11-13T12:40:22.020Z,98321.00
2023-11-13T12:42:49.512Z,98306.25
2023-11-13T12:45:18.593Z,98323.09
2023-11-13T12:47:48.262Z,98316.19
2023-11-13T12:50:20.443Z,98308.91
2023-11-13T12:52:53.489Z,98307.75
2023-11-13T12:55:21.401Z,98305.47
2023-11-13T12:57:49.526Z,98299.34
2023-11-13T13:00:17.213Z,98293.91
2023-11-13T13:02:50.596Z,98293.13
2023-11-13T13:05:29.098Z,98280.31
2023-11-13T13:07:59.839Z,98273.03
2023-11-13T13:10:26.841Z,98276.97
2023-11-13T13:12:53.524Z,98282.50
2023-11-13T13:15:22.376Z,98279.06
2023-11-13T13:17:52.183Z,98265.47
2023-11-13T13:20:20.180Z,98266.78
2023-11-13T13:22:52.732Z,98274.16
2023-11-13T13:25:26.219Z,98264.03
2023-11-13T13:27:53.200Z,98252.72
2023-11-13T13:30:23.040Z,98268.28
2023-11-13T13:32:51.266Z,98253.09
2023-11-13T13:35:19.922Z,98241.78
2023-11-13T13:37:46.480Z,98242.13
2023-11-13T13:40:14.288Z,98235.91
2023-11-13T13:42:41.908Z,98233.94
2023-11-13T13:45:17.767Z,98227.38
2023-11-13T13:47:49.728Z,98218.88
2023-11-13T13:50:20.807Z,98226.50
2023-11-13T13:52:58.507Z,98213.75
2023-11-13T13:55:29.434Z,98200.16
2023-11-13T13:57:58.601Z,98213.06
2023-11-13T14:03:01.099Z,98192.78
2023-11-13T14:05:28.308Z,98202.44
2023-11-13T14:07:54.925Z,98192.00
2023-11-13T14:10:22.728Z,98185.41
2023-11-13T14:12:51.362Z,98187.78
2023-11-13T14:15:18.382Z,98180.38
2023-11-13T14:17:45.303Z,98188.56
2023-11-13T14:20:16.625Z,98186.28
2023-11-13T14:22:49.595Z,98179.25
2023-11-13T14:25:21.537Z,98158.63
2023-11-13T14:27:55.042Z,98171.28
2023-11-13T14:30:23.868Z,98151.06
2023-11-13T14:32:53.903Z,98145.63
2023-11-13T14:35:21.722Z,98159.19
2023-11-13T14:37:54.600Z,98151.78
2023-11-13T14:40:22.107Z,98135.47
2023-11-13T14:42:48.645Z,98142.16
2023-11-13T14:45:18.210Z,98153.47
2023-11-13T14:47:48.813Z,98147.31
2023-11-13T14:50:21.637Z,98157.03
2023-11-13T14:52:53.164Z,98169.06
2023-11-13T14:55:22.963Z,98165.22
2023-11-13T14:57:51.893Z,98150.47
2023-11-13T15:00:21.452Z,98139.56
2023-11-13T15:02:50.693Z,98141.94
2023-11-13T15:05:18.765Z,98154.03
2023-11-13T15:07:46.337Z,98157.66
2023-11-13T15:10:14.499Z,98163.09
2023-11-13T15:12:41.786Z,98161.94
2023-11-13T15:15:14.298Z,98169.41
2023-11-13T15:17:42.592Z,98160.09
2023-11-13T15:20:15.583Z,98163.25
2023-11-13T15:25:15.233Z,98143.13
2023-11-13T15:27:41.830Z,98153.22
2023-11-13T15:30:12.549Z,98136.88
2023-11-13T15:32:41.139Z,98140.00
2023-11-13T15:35:09.219Z,98140.31
2023-11-13T15:37:40.924Z,98157.81
2023-11-13T15:40:09.612Z,98133.22
2023-11-13T15:42:37.016Z,98147.53
2023-11-13T15:45:03.999Z,98139.75
2023-11-13T15:47:30.621Z,98139.75
2023-11-13T15:49:58.724Z,98134.75
2023-11-13T15:52:26.238Z,98147.19
2023-11-13T15:54:52.984Z,98129.00
2023-11-13T15:57:19.479Z,98122.84
2023-11-13T15:59:45.940Z,98136.88
2023-11-13T16:02:12.994Z,98139.31
2023-11-13T16:04:39.763Z,98117.53
2023-11-13T16:07:07.993Z,98126.88
2023-11-13T16:09:35.017Z,98135.50
2023-11-13T16:12:02.297Z,98132.84
2023-11-13T16:14:33.346Z,98148.03
2023-11-13T16:17:01.110Z,98139.44
2023-11-13T16:19:29.383Z,98134.09
2023-11-13T16:21:55.989Z,98144.25
2023-11-13T16:24:23.182Z,98137.28
2023-11-13T16:26:53.622Z,98143.97
2023-11-13T16:29:23.022Z,98127.19
2023-11-13T16:31:50.689Z,98136.94
2023-11-13T16:34:19.291Z,98134.56
2023-11-13T16:36:45.892Z,98133.41
2023-11-13T16:39:14.037Z,98145.88
2023-11-13T16:41:41.138Z,98147.50
2023-11-13T16:44:07.662Z,98130.44
2023-11-13T16:46:34.335Z,98153.50
2023-11-13T16:49:06.503Z,98148.16
2023-11-13T16:51:33.216Z,98159.91
2023-11-13T16:53:59.798Z,98161.97
2023-11-13T16:56:26.712Z,98188.50
2023-11-13T16:58:53.856Z,98169.06
2023-11-13T17:01:22.194Z,98160.16
2023-11-13T17:03:48.827Z,98172.22
2023-11-13T17:06:16.839Z,98174.50
2023-11-13T17:08:43.628Z,98173.56
2023-11-13T17:11:10.747Z,98166.50
2023-11-13T17:13:38.219Z,98171.09
2023-11-13T17:16:10.052Z,98184.97
2023-11-13T17:18:36.957Z,98183.81
2023-11-13T17:21:04.425Z,98178.78
2023-11-13T17:23:30.942Z,98177.66
2023-11-13T17:25:59.184Z,98197.94
2023-11-13T17:28:27.293Z,98228.84
2023-11-13T17:30:53.824Z,98218.81
2023-11-13T17:33:23.701Z,98230.56
2023-11-13T17:35:51.404Z,98219.66
2023-11-13T17:38:18.157Z,98222.06
2023-11-13T17:40:44.833Z,98260.97
2023-11-13T17:43:11.909Z,98266.63
2023-11-13T17:45:38.460Z,98327.03
2023-11-13T17:48:05.989Z,98326.81
2023-11-13T17:50:32.665Z,98332.66
2023-11-13T17:52:59.150Z,98349.09
2023-11-13T17:55:26.273Z,98325.59
2023-11-13T17:57:52.916Z,98325.28
2023-11-13T18:00:19.803Z,98348.81
2023-11-13T18:02:46.746Z,98356.16
2023-11-13T18:05:13.502Z,98351.34
2023-11-13T18:07:41.518Z,98367.25
2023-11-13T18:10:09.304Z,98369.38
2023-11-13T18:12:35.881Z,98365.16
2023-11-13T18:15:04.587Z,98367.94
2023-11-13T18:17:32.267Z,98388.72
2023-11-13T18:19:58.903Z,98397.75
2023-11-13T18:22:25.495Z,98407.69
2023-11-13T18:24:52.040Z,98415.91
2023-11-13T18:27:18.601Z,98407.97
2023-11-13T18:29:45.150Z,98417.09
2023-11-13T18:32:12.028Z,98433.34
2023-11-13T18:34:38.722Z,98414.84
2023-11-13T18:37:05.348Z,98406.25
2023-11-13T18:39:31.905Z,98404.94
2023-11-13T18:41:58.456Z,98406.78
2023-11-13T18:44:25.189Z,98414.03
2023-11-13T18:46:51.825Z,98415.09
2023-11-13T18:49:20.453Z,98415.22
2023-11-13T18:51:47.563Z,98408.47
2023-11-13T18:54:14.233Z,98420.22
2023-11-13T18:56:40.815Z,98409.38
2023-11-13T18:59:07.397Z,98418.97
2023-11-13T19:01:34.551Z,98412.97
2023-11-13T19:04:01.481Z,98411.69
2023-11-13T19:06:28.690Z,98417.47
2023-11-13T19:08:55.383Z,98418.25
2023-11-13T19:11:23.085Z,98421.31
2023-11-13T19:13:52.159Z,98417.47
2023-11-13T19:16:19.152Z,98405.03
2023-11-13T19:18:46.158Z,98407.31
2023-11-13T19:21:12.734Z,98413.84
2023-11-13T19:23:40.119Z,98410.66
2023-11-13T19:26:07.762Z,98429.78
2023-11-13T19:28:34.453Z,98427.41
2023-11-13T19:31:01.010Z,65537.00
2023-11-13T19:33:27.556Z,65537.00
2023-11-13T19:35:54.352Z,98427.41
2023-11-13T19:38:20.937Z,98422.50
2023-11-13T19:40:47.443Z,98438.78
2023-11-13T19:43:14.093Z,98450.41
2023-11-13T19:45:40.696Z,65537.00
2023-11-13T19:48:07.775Z,65537.00
2023-11-13T19:50:35.628Z,65537.00
2023-11-13T19:53:03.424Z,65537.00
2023-11-13T19:55:30.151Z,98440.69
2023-11-13T19:57:56.785Z,98472.50
2023-11-13T20:00:24.735Z,98456.22
2023-11-13T20:02:52.686Z,98465.50
2023-11-13T20:05:19.337Z,98460.75
2023-11-13T20:07:46.274Z,98463.63
2023-11-13T20:10:13.354Z,98457.63
2023-11-13T20:12:40.204Z,98454.09
2023-11-13T20:15:08.149Z,98463.34
2023-11-13T20:17:35.080Z,98464.03
2023-11-13T20:20:01.969Z,98473.94
2023-11-13T20:22:28.578Z,98462.94
2023-11-13T20:24:55.088Z,98485.28
2023-11-13T20:27:22.103Z,98489.44
2023-11-13T20:29:55.194Z,98496.63
2023-11-13T20:32:27.259Z,98503.53
2023-11-13T20:34:53.881Z,98504.03
2023-11-13T20:37:20.984Z,98509.44
2023-11-13T20:39:47.554Z,98518.22
2023-11-13T20:42:15.771Z,98516.94
2023-11-13T20:44:42.385Z,98521.44
2023-11-13T20:47:08.998Z,98527.16
2023-11-13T20:49:36.382Z,98519.69
2023-11-13T20:52:04.449Z,98541.25
2023-11-13T20:54:30.918Z,98542.00
2023-11-13T20:56:57.588Z,98552.84
2023-11-13T20:59:24.738Z,98550.59
2023-11-13T21:01:51.318Z,98552.69
2023-11-13T21:04:19.265Z,98570.22
2023-11-13T21:06:46.341Z,98565.44
2023-11-13T21:09:13.706Z,98575.00
2023-11-13T21:11:40.331Z,98579.66
2023-11-13T21:14:06.886Z,98588.41
2023-11-13T21:16:33.522Z,98611.19
2023-11-13T21:19:00.067Z,98606.91
2023-11-13T21:21:28.341Z,98609.44
2023-11-13T21:23:58.306Z,98624.44
2023-11-13T21:26:24.809Z,98615.34
2023-11-13T21:28:51.410Z,98613.91
2023-11-13T21:31:17.901Z,98618.03
2023-11-13T21:33:44.595Z,98622.34
2023-11-13T21:36:11.414Z,98624.28
2023-11-13T21:38:38.921Z,98616.44
2023-11-13T21:41:07.676Z,98623.31
2023-11-13T21:43:35.866Z,98630.16
2023-11-13T21:46:05.292Z,98631.09
2023-11-13T21:48:31.927Z,98625.84
2023-11-13T21:50:58.515Z,98639.38
2023-11-13T21:53:26.782Z,98640.19
2023-11-13T21:55:55.057Z,98642.91
2023-11-13T21:58:22.037Z,98634.44
2023-11-13T22:00:48.716Z,98638.91
2023-11-13T22:03:15.472Z,98637.78
2023-11-13T22:05:42.042Z,98647.97
2023-11-13T22:08:09.312Z,98644.00
2023-11-13T22:10:37.620Z,98646.88
2023-11-13T22:13:05.139Z,98644.94
2023-11-13T22:15:31.661Z,98639.69
2023-11-13T22:17:58.220Z,98639.53
2023-11-13T22:20:28.779Z,98650.97
2023-11-13T22:22:56.763Z,98650.03
2023-11-13T22:25:23.459Z,98654.47
2023-11-13T22:27:52.025Z,98648.13
2023-11-13T22:30:18.590Z,98646.53
2023-11-13T22:32:45.390Z,98653.66
2023-11-13T22:35:12.021Z,98650.81
2023-11-13T22:37:38.704Z,98644.09
2023-11-13T22:40:06.682Z,98641.41
2023-11-13T22:42:34.244Z,98634.41
2023-11-13T22:45:01.402Z,98640.94
2023-11-13T22:47:27.985Z,98632.00
2023-11-13T22:49:54.593Z,98646.81
2023-11-13T22:52:22.323Z,98649.84
2023-11-13T22:54:52.224Z,98641.56
2023-11-13T22:57:19.759Z,98651.91
2023-11-13T22:59:47.925Z,98647.13
2023-11-13T23:02:15.064Z,98664.44
2023-11-13T23:04:41.785Z,98678.56
2023-11-13T23:07:13.227Z,98687.78
2023-11-13T23:09:39.995Z,98688.41
2023-11-13T23:12:06.636Z,98685.06
2023-11-13T23:14:33.104Z,98697.47
2023-11-13T23:17:00.861Z,98695.41
2023-11-13T23:19:27.698Z,98696.03
2023-11-13T23:22:01.895Z,98703.66
2023-11-13T23:24:31.191Z,98698.59
2023-11-13T23:26:58.029Z,98714.47
2023-11-13T23:29:24.550Z,98710.66
2023-11-13T23:31:51.501Z,98714.97
2023-11-13T23:34:18.555Z,98723.41
2023-11-13T23:36:45.202Z,98714.47
2023-11-13T23:39:11.822Z,98711.09
2023-11-13T23:41:38.318Z,98722.72
2023-11-13T23:44:05.336Z,98717.31
2023-11-13T23:46:31.973Z,98720.66
2023-11-13T23:48:58.554Z,98720.66
2023-11-13T23:51:25.806Z,98710.94
2023-11-13T23:53:53.679Z,98716.97
2023-11-13T23:56:20.507Z,98723.16
2023-11-13T23:58:47.351Z,98733.69
